Hg 306 Tobis — OUPS — position and weather

sailwx.info

Track history (hours):
 
Tides and Currents Weather Stations Pressure Air Temp Water Temp Dewpoint Dewpoint Depression Visibility Wind Speed Wind Dir Waves Ship Positions

Hg 306 Tobis

Last reported at 2014-Jul-31 23:22 UTC. Time now 2014-Jul-31 23:44 UTC.
Position N 57°36' E 009°59'.

Length 40 m; draft 6.5 m.

Type: Fishing. MMSI: 219013001.

Date/timePositionNaut miles runAvg speedWind from/ knotsBaromVisibWave heightAir tempDewpointWater temp
2014-Jul-31 23:22N 57°36' E 009°59'0 0.0
2014-Jul-31 21:30N 57°36' E 009°59'0 0.0
2014-Jul-30 05:33N 57°36' E 009°58'0 0.0
2014-Jul-30 04:31N 57°36' E 009°58'53 2.0
2014-Jul-29 01:31N 57°08' E 008°35'  
2014-Jul-25 22:24N 57°25' E 005°37'6 0.2
2014-Jul-24 14:31N 57°25' E 005°26'4 0.5
2014-Jul-24 07:23N 57°25' E 005°19'9 2.9
2014-Jul-24 04:17N 57°25' E 005°36'99 4.7
2014-Jul-23 07:03N 57°07' E 008°36'0 0.0
2014-Jul-23 06:33N 57°07' E 008°36'0 0.0
2014-Jul-23 05:33N 57°07' E 008°36'  
Track history (hours):
 
Tides and Currents Weather Stations Pressure Air Temp Water Temp Dewpoint Dewpoint Depression Visibility Wind Speed Wind Dir Waves Ship Positions

Hg 306 Tobis

Last reported at 2014-Jul-31 23:22 UTC. Time now 2014-Jul-31 23:44 UTC.
Position N 57°36' E 009°59'.

Length 40 m; draft 6.5 m.

Type: Fishing. MMSI: 219013001.

Date/timePositionNaut miles runAvg speedWind from/ knotsBaromVisibWave heightAir tempDewpointWater temp
2014-Jul-31 23:22N 57°36' E 009°59'0 0.0
2014-Jul-31 21:30N 57°36' E 009°59'0 0.0
2014-Jul-30 05:33N 57°36' E 009°58'0 0.0
2014-Jul-30 04:31N 57°36' E 009°58'53 2.0
2014-Jul-29 01:31N 57°08' E 008°35'  
2014-Jul-25 22:24N 57°25' E 005°37'6 0.2
2014-Jul-24 14:31N 57°25' E 005°26'4 0.5
2014-Jul-24 07:23N 57°25' E 005°19'9 2.9
2014-Jul-24 04:17N 57°25' E 005°36'99 4.7
2014-Jul-23 07:03N 57°07' E 008°36'0 0.0
2014-Jul-23 06:33N 57°07' E 008°36'0 0.0
2014-Jul-23 05:33N 57°07' E 008°36'  

Dump ship's entire track history